Terminal Aerodrome Forecast
Issued by NWS

Home | Current Version | Previous Version | Text Only | Print | Product List | Glossary On
Versions: 1 2 3 4 5 6 7 8 9 10 11 12 13 14 15 16
000
FTUS43 KILX 241700 RRA
TAFBMI
TAF
KBMI 241748Z 2418/2518 16018G28KT P6SM OVC050
     FM250000 17010G18KT 4SM -RA VCTS OVC035CB
     FM250300 17008KT 4SM -RA VCTS SCT007CB OVC015
     FM250700 33014G20KT 6SM -RA BR SCT007 OVC015
     FM251000 30012KT P6SM SKC=

USA.gov is the U.S. government's official web portal to all federal, state and local government web resources and services.